createdAt,value
2022-08-17T00:01:53.263Z,94845.56
2022-08-17T00:05:38.327Z,94841.66
2022-08-17T00:09:22.465Z,94837.41
2022-08-17T00:13:10.289Z,94835.34
2022-08-17T00:16:57.717Z,94825.75
2022-08-17T00:20:40.712Z,94825.81
2022-08-17T00:24:24.854Z,94826.91
2022-08-17T00:28:08.019Z,94824.25
2022-08-17T00:31:50.898Z,94819.47
2022-08-17T00:35:33.739Z,94813.09
2022-08-17T00:39:16.509Z,94817.94
2022-08-17T00:43:10.834Z,94813.69
2022-08-17T00:46:53.916Z,94803.56
2022-08-17T00:50:36.678Z,94815.28
2022-08-17T00:54:25.783Z,94814.50
2022-08-17T00:58:10.861Z,94801.97
2022-08-17T01:01:53.765Z,94798.78
2022-08-17T01:05:42.412Z,94797.19
2022-08-17T01:09:25.436Z,94796.13
2022-08-17T01:13:09.692Z,94799.56
2022-08-17T01:16:55.500Z,94799.56
2022-08-17T01:20:47.955Z,94804.91
2022-08-17T01:24:33.777Z,94797.47
2022-08-17T01:28:53.162Z,94799.38
2022-08-17T01:32:20.379Z,94798.31
2022-08-17T01:36:05.355Z,94814.31
2022-08-17T01:39:52.051Z,94809.50
2022-08-17T01:43:39.815Z,94808.47
2022-08-17T01:47:22.634Z,94800.19
2022-08-17T01:51:07.595Z,94793.00
2022-08-17T01:54:53.727Z,94790.91
2022-08-17T01:58:37.711Z,94792.50
2022-08-17T02:02:31.004Z,94785.56
2022-08-17T02:06:27.120Z,94783.72
2022-08-17T02:10:19.870Z,94787.72
2022-08-17T02:14:04.207Z,94791.97
2022-08-17T02:17:47.131Z,94802.06
2022-08-17T02:21:38.624Z,94799.41
2022-08-17T02:25:23.068Z,94799.69
2022-08-17T02:29:06.094Z,94792.50
2022-08-17T02:32:49.092Z,94780.53
2022-08-17T02:36:32.285Z,94773.59
2022-08-17T02:40:16.663Z,94769.03
2022-08-17T02:44:38.750Z,94781.84
2022-08-17T02:48:30.636Z,94775.19
2022-08-17T02:52:14.689Z,94780.22
2022-08-17T02:55:57.734Z,94768.00
2022-08-17T02:59:48.300Z,94762.13
2022-08-17T03:03:31.797Z,94746.16
2022-08-17T03:07:15.279Z,94743.50
2022-08-17T03:10:58.066Z,94751.97
2022-08-17T03:14:43.617Z,94754.66
2022-08-17T03:18:27.966Z,94751.44
2022-08-17T03:22:36.445Z,94747.19
2022-08-17T03:26:15.497Z,94747.47
2022-08-17T03:30:00.464Z,94751.47
2022-08-17T03:33:43.215Z,94758.41
2022-08-17T03:37:25.991Z,94762.09
2022-08-17T03:41:08.765Z,94764.50
2022-08-17T03:44:52.414Z,94780.47
2022-08-17T03:48:59.426Z,94771.41
2022-08-17T03:52:59.916Z,94781.28
2022-08-17T03:56:44.307Z,94777.03
2022-08-17T04:00:27.657Z,94775.94
2022-08-17T04:04:12.189Z,94784.44
2022-08-17T04:07:55.135Z,94780.44
2022-08-17T04:11:37.991Z,94781.00
2022-08-17T04:15:21.230Z,94791.38
2022-08-17T04:19:05.655Z,94783.97
2022-08-17T04:23:02.096Z,94780.78
2022-08-17T04:26:54.250Z,94777.56
2022-08-17T04:30:38.734Z,94762.13
2022-08-17T04:34:21.713Z,94760.25
2022-08-17T04:38:09.235Z,94767.44
2022-08-17T04:42:17.232Z,94766.38
2022-08-17T04:46:01.708Z,94767.19
2022-08-17T04:49:44.925Z,94773.06
2022-08-17T04:53:29.349Z,94764.78
2022-08-17T04:57:12.103Z,94765.59
2022-08-17T05:00:54.957Z,94772.25
2022-08-17T05:04:41.722Z,94767.44
2022-08-17T05:08:24.767Z,94772.75
2022-08-17T05:12:10.286Z,94775.44
2022-08-17T05:15:55.656Z,94777.03
2022-08-17T05:19:38.405Z,94778.63
2022-08-17T05:23:22.477Z,94786.88
2022-08-17T05:27:06.122Z,94785.00
2022-08-17T05:30:50.897Z,94790.03
2022-08-17T05:34:33.660Z,94791.34
2022-08-17T05:38:18.771Z,94795.31
2022-08-17T05:42:02.982Z,94798.22
2022-08-17T05:46:00.336Z,94800.34
2022-08-17T05:49:44.527Z,94799.03
2022-08-17T05:53:35.285Z,94798.22
2022-08-17T05:57:53.384Z,94797.16
2022-08-17T06:01:47.908Z,94797.59
2022-08-17T06:06:01.275Z,94796.44
2022-08-17T06:09:49.763Z,94804.91
2022-08-17T06:13:46.572Z,94814.50
2022-08-17T06:17:31.110Z,94806.69
2022-08-17T06:21:19.211Z,94816.56
2022-08-17T06:25:13.847Z,94812.25
2022-08-17T06:28:59.892Z,94807.84
2022-08-17T06:32:46.226Z,94811.00
2022-08-17T06:36:42.694Z,94825.63
2022-08-17T06:40:50.849Z,94828.22
2022-08-17T06:44:49.775Z,94825.16
2022-08-17T06:48:38.951Z,94828.53
2022-08-17T06:52:45.355Z,94842.66
2022-08-17T06:56:53.264Z,94830.25
2022-08-17T07:00:41.751Z,94837.13
2022-08-17T07:04:27.215Z,94848.50
2022-08-17T07:08:16.657Z,94856.72
2022-08-17T07:12:03.258Z,94861.94
2022-08-17T07:15:50.243Z,94862.97
2022-08-17T07:19:36.832Z,94864.75
2022-08-17T07:23:24.288Z,94865.63
2022-08-17T07:27:13.354Z,94863.25
2022-08-17T07:30:56.452Z,94869.50
2022-08-17T07:35:12.871Z,94873.47
2022-08-17T07:39:02.434Z,94881.13
2022-08-17T07:43:05.681Z,94880.78
2022-08-17T07:47:07.367Z,94894.09
2022-08-17T07:50:53.191Z,94893.91
2022-08-17T07:54:39.641Z,94892.69
2022-08-17T07:58:24.142Z,94886.75
2022-08-17T08:02:31.696Z,94892.00
2022-08-17T08:06:21.839Z,94902.13
2022-08-17T08:10:10.657Z,94894.16
2022-08-17T08:13:53.475Z,94885.63
2022-08-17T08:17:37.937Z,94887.63
2022-08-17T08:21:30.038Z,94888.06
2022-08-17T08:25:22.249Z,94895.91
2022-08-17T08:29:10.887Z,94884.59
2022-08-17T08:33:04.173Z,94878.06
2022-08-17T08:37:14.113Z,94879.50
2022-08-17T08:41:05.277Z,94881.97
2022-08-17T08:45:00.376Z,94879.19
2022-08-17T08:49:12.067Z,94874.66
2022-08-17T08:53:12.104Z,94878.47
2022-08-17T08:57:23.223Z,94872.13
2022-08-17T09:01:06.180Z,94861.09
2022-08-17T09:05:13.788Z,94864.81
2022-08-17T09:09:05.028Z,94867.19
2022-08-17T09:12:55.088Z,94871.56
2022-08-17T09:16:40.470Z,94877.13
2022-08-17T09:20:27.295Z,94875.31
2022-08-17T09:24:15.612Z,94877.97
2022-08-17T09:28:08.041Z,94863.31
2022-08-17T09:31:56.113Z,94863.59
2022-08-17T09:35:43.745Z,94871.44
2022-08-17T09:39:32.226Z,94863.03
2022-08-17T09:43:23.381Z,94884.00
2022-08-17T09:47:10.998Z,94880.72
2022-08-17T09:51:05.113Z,94869.03
2022-08-17T09:54:50.872Z,94858.75
2022-08-17T09:58:44.905Z,94861.00
2022-08-17T10:02:54.356Z,94868.84
2022-08-17T10:06:47.647Z,94868.72
2022-08-17T10:10:34.589Z,94880.44
2022-08-17T10:14:37.054Z,94874.44
2022-08-17T10:18:37.897Z,94869.31
2022-08-17T10:22:42.985Z,94874.94
2022-08-17T10:26:28.139Z,94863.19
2022-08-17T10:30:33.442Z,94858.06
2022-08-17T10:34:43.176Z,94865.03
2022-08-17T10:38:37.581Z,94866.63
2022-08-17T10:42:30.907Z,94863.63
2022-08-17T10:46:30.602Z,94866.47
2022-08-17T10:50:48.008Z,94875.53
2022-08-17T10:54:42.808Z,94867.28
2022-08-17T10:58:28.558Z,94867.28
2022-08-17T11:02:17.807Z,94856.03
2022-08-17T11:06:15.312Z,94859.53
2022-08-17T11:10:15.295Z,94861.91
2022-08-17T11:14:14.174Z,94872.53
2022-08-17T11:18:08.272Z,94872.44
2022-08-17T11:22:31.276Z,94863.72
2022-08-17T11:26:26.310Z,94861.88
2022-08-17T11:30:12.974Z,94862.19
2022-08-17T11:34:05.657Z,94864.41
2022-08-17T11:37:55.046Z,94857.25
2022-08-17T11:41:46.142Z,94861.69
2022-08-17T11:45:40.295Z,94850.13
2022-08-17T11:50:06.174Z,94848.06
2022-08-17T11:54:31.620Z,94866.47
2022-08-17T11:58:37.361Z,94875.69
2022-08-17T12:02:47.559Z,94880.00
2022-08-17T12:06:48.271Z,94868.97
2022-08-17T12:10:34.300Z,94871.81
2022-08-17T12:14:32.275Z,94868.28
2022-08-17T12:18:24.531Z,94867.22
2022-08-17T12:22:14.295Z,94864.38
2022-08-17T12:26:00.786Z,94865.13
2022-08-17T12:29:45.359Z,94867.50
2022-08-17T12:33:28.960Z,94858.50
2022-08-17T12:37:18.602Z,94850.19
2022-08-17T12:41:22.374Z,94839.53
2022-08-17T12:45:06.630Z,94836.47
2022-08-17T12:48:58.951Z,94837.41
2022-08-17T12:52:44.581Z,94829.28
2022-08-17T12:56:29.904Z,94826.75
2022-08-17T13:00:17.777Z,94824.91
2022-08-17T13:04:00.691Z,94838.50
2022-08-17T13:07:46.575Z,94825.28
2022-08-17T13:11:29.919Z,94819.78
2022-08-17T13:15:21.652Z,94828.00
2022-08-17T13:19:08.044Z,94835.41
2022-08-17T13:22:57.084Z,94821.84
2022-08-17T13:26:41.540Z,94824.97
2022-08-17T13:30:28.109Z,94820.34
2022-08-17T13:34:15.567Z,94824.69
2022-08-17T13:38:02.440Z,94809.63
2022-08-17T13:41:45.802Z,94823.19
2022-08-17T13:45:38.907Z,94824.41
2022-08-17T13:49:22.573Z,94818.97
2022-08-17T13:53:18.791Z,94820.91
2022-08-17T13:57:04.627Z,94822.09
2022-08-17T14:00:47.449Z,94821.84
2022-08-17T14:04:32.647Z,94810.66
2022-08-17T14:08:18.716Z,94800.09
2022-08-17T14:12:02.269Z,94794.28
2022-08-17T14:15:55.621Z,94782.50
2022-08-17T14:19:40.064Z,94783.38
2022-08-17T14:23:24.381Z,94775.16
2022-08-17T14:27:08.994Z,94773.38
2022-08-17T14:30:54.599Z,94769.66
2022-08-17T14:34:37.379Z,94765.06
2022-08-17T14:38:20.826Z,94751.31
2022-08-17T14:42:05.325Z,94740.41
2022-08-17T14:45:48.275Z,94748.81
2022-08-17T14:49:31.540Z,94750.06
2022-08-17T14:53:16.352Z,94746.06
2022-08-17T14:57:22.464Z,94736.69
2022-08-17T15:01:03.300Z,94737.19
2022-08-17T15:04:47.626Z,94734.63
2022-08-17T15:08:30.585Z,94746.84
2022-08-17T15:12:16.988Z,94752.47
2022-08-17T15:16:00.369Z,94752.81
2022-08-17T15:19:44.504Z,94743.22
2022-08-17T15:23:28.011Z,94753.94
2022-08-17T15:27:11.451Z,94763.53
2022-08-17T15:30:54.658Z,94772.25
2022-08-17T15:34:37.520Z,94763.72
2022-08-17T15:38:22.863Z,94751.94
2022-08-17T15:42:06.067Z,94756.66
2022-08-17T15:46:00.191Z,94752.72
2022-08-17T15:49:45.320Z,94748.03
2022-08-17T15:53:29.406Z,94749.16
2022-08-17T15:57:12.140Z,94754.81
2022-08-17T16:01:16.797Z,94765.97
2022-08-17T16:05:04.262Z,94755.91
2022-08-17T16:08:54.899Z,94752.47
2022-08-17T16:12:38.004Z,94752.97
2022-08-17T16:16:20.805Z,94753.38
2022-08-17T16:20:03.885Z,94749.84
2022-08-17T16:23:47.038Z,94761.25
2022-08-17T16:27:31.146Z,94743.50
2022-08-17T16:31:14.573Z,94740.88
2022-08-17T16:34:57.637Z,94743.56
2022-08-17T16:38:40.353Z,94743.25
2022-08-17T16:42:26.128Z,94749.06
2022-08-17T16:46:11.393Z,94732.28
2022-08-17T16:49:55.003Z,94737.16
2022-08-17T16:53:37.763Z,94738.91
2022-08-17T16:57:20.514Z,94729.22
2022-08-17T17:01:03.307Z,94734.19
2022-08-17T17:04:52.017Z,94732.06
2022-08-17T17:08:43.660Z,94724.25
2022-08-17T17:12:59.453Z,94715.41
2022-08-17T17:16:37.302Z,94718.81
2022-08-17T17:20:25.989Z,94715.75
2022-08-17T17:24:12.969Z,94710.47
2022-08-17T17:28:02.070Z,94705.38
2022-08-17T17:31:50.741Z,94699.59
2022-08-17T17:35:40.735Z,94698.47
2022-08-17T17:39:31.691Z,94696.59
2022-08-17T17:43:38.261Z,94712.28
2022-08-17T17:47:22.249Z,94707.38
2022-08-17T17:51:11.902Z,94700.25
2022-08-17T17:55:05.924Z,94718.94
2022-08-17T17:58:52.987Z,94709.69
2022-08-17T18:02:51.482Z,94701.09
2022-08-17T18:06:45.455Z,94693.72
2022-08-17T18:10:35.500Z,94686.69
2022-08-17T18:14:28.161Z,94689.31
2022-08-17T18:18:37.733Z,94681.75
2022-08-17T18:22:23.210Z,94677.41
2022-08-17T18:26:06.241Z,94680.06
2022-08-17T18:29:49.856Z,94688.06
2022-08-17T18:33:33.020Z,94683.03
2022-08-17T18:37:32.870Z,94690.38
2022-08-17T18:41:23.619Z,94691.19
2022-08-17T18:45:06.949Z,94698.22
2022-08-17T18:48:58.889Z,94690.97
2022-08-17T18:52:43.525Z,94699.09
2022-08-17T18:56:30.957Z,94697.19
2022-08-17T19:00:17.287Z,94698.50
2022-08-17T19:04:00.443Z,94690.56
2022-08-17T19:07:46.199Z,94673.44
2022-08-17T19:11:31.991Z,94667.72
2022-08-17T19:15:19.030Z,94657.44
2022-08-17T19:19:06.979Z,94662.53
2022-08-17T19:23:01.478Z,94677.63
2022-08-17T19:26:55.382Z,94685.75
2022-08-17T19:30:38.965Z,94683.97
2022-08-17T19:34:34.612Z,94692.72
2022-08-17T19:38:31.383Z,94700.31
2022-08-17T19:42:20.685Z,94705.25
2022-08-17T19:46:08.809Z,94713.97
2022-08-17T19:49:59.806Z,94706.22
2022-08-17T19:54:06.901Z,94707.63
2022-08-17T19:57:57.503Z,94710.97
2022-08-17T20:01:44.728Z,94705.75
2022-08-17T20:05:29.689Z,94714.16
2022-08-17T20:09:21.405Z,94707.31
2022-08-17T20:13:07.621Z,94708.72
2022-08-17T20:16:50.493Z,94704.75
2022-08-17T20:20:37.862Z,94709.38
2022-08-17T20:24:27.733Z,94716.97
2022-08-17T20:28:21.068Z,94715.38
2022-08-17T20:32:18.316Z,94712.22
2022-08-17T20:36:05.328Z,94707.47
2022-08-17T20:40:14.510Z,94697.31
2022-08-17T20:44:06.766Z,94677.97
2022-08-17T20:48:17.371Z,94664.03
2022-08-17T20:52:01.429Z,94657.69
2022-08-17T20:55:55.855Z,94670.03
2022-08-17T20:59:59.344Z,94676.34
2022-08-17T21:03:51.920Z,94671.13
2022-08-17T21:07:52.498Z,94677.94
2022-08-17T21:12:04.185Z,94682.53
2022-08-17T21:15:53.248Z,94676.66
2022-08-17T21:20:09.767Z,94678.09
2022-08-17T21:24:02.203Z,94668.09
2022-08-17T21:27:50.620Z,94666.53
2022-08-17T21:31:36.598Z,94669.84
2022-08-17T21:35:48.275Z,94659.22
2022-08-17T21:39:34.397Z,94659.84
2022-08-17T21:43:24.100Z,94667.75
2022-08-17T21:47:16.580Z,94673.28
2022-08-17T21:51:03.579Z,94667.25
2022-08-17T21:54:53.614Z,94673.75
2022-08-17T21:58:40.144Z,94673.75
2022-08-17T22:02:25.586Z,94679.44
2022-08-17T22:06:23.070Z,94685.13
2022-08-17T22:10:07.648Z,94715.06
2022-08-17T22:13:51.715Z,94753.91
2022-08-17T22:17:46.717Z,94737.59
2022-08-17T22:21:29.523Z,94726.25
2022-08-17T22:25:21.789Z,94741.03
2022-08-17T22:29:06.067Z,94810.59
2022-08-17T22:32:49.819Z,94839.47
2022-08-17T22:36:33.660Z,94844.50
2022-08-17T22:40:26.704Z,94867.25
2022-08-17T22:44:25.454Z,94910.03
2022-08-17T22:48:09.009Z,94919.88
2022-08-17T22:52:07.888Z,94921.41
2022-08-17T22:56:09.504Z,94926.59
2022-08-17T22:59:55.496Z,94912.66
2022-08-17T23:03:53.818Z,94915.66
2022-08-17T23:07:36.650Z,94913.84
2022-08-17T23:11:23.811Z,94911.59
2022-08-17T23:15:32.884Z,94926.56
2022-08-17T23:19:17.471Z,94935.97
2022-08-17T23:23:00.714Z,94917.56
2022-08-17T23:26:43.467Z,94924.44
2022-08-17T23:30:28.428Z,94931.94
2022-08-17T23:34:13.946Z,94921.31
2022-08-17T23:37:56.652Z,94937.09
2022-08-17T23:41:39.936Z,94958.16
2022-08-17T23:45:22.801Z,94972.59
2022-08-17T23:49:06.996Z,94977.91
2022-08-17T23:52:50.210Z,94970.97
2022-08-17T23:56:33.545Z,94994.19
